createdAt,value
2019-02-24T00:01:23.947Z,2.70
2019-02-24T00:04:05.062Z,2.70
2019-02-24T00:06:45.866Z,2.60
2019-02-24T00:09:26.550Z,2.60
2019-02-24T00:12:07.090Z,2.60
2019-02-24T00:14:48.072Z,2.60
2019-02-24T00:17:28.827Z,2.60
2019-02-24T00:20:09.695Z,2.50
2019-02-24T00:22:50.442Z,2.50
2019-02-24T00:25:31.044Z,2.50
2019-02-24T00:28:11.530Z,2.50
2019-02-24T00:30:51.997Z,2.50
2019-02-24T00:33:20.568Z,2.50
2019-02-24T00:36:08.443Z,2.50
2019-02-24T00:38:56.346Z,2.50
2019-02-24T00:41:44.230Z,2.60
2019-02-24T00:44:32.148Z,2.60
2019-02-24T00:47:20.046Z,2.50
2019-02-24T00:50:08.858Z,2.50
2019-02-24T00:55:50.605Z,2.40
2019-02-24T00:58:38.510Z,2.40
2019-02-24T01:01:26.454Z,2.40
2019-02-24T01:04:14.354Z,2.40
2019-02-24T01:07:02.263Z,2.30
2019-02-24T01:09:50.142Z,2.30
2019-02-24T01:12:38.041Z,2.30
2019-02-24T01:15:25.932Z,2.20
2019-02-24T01:18:13.834Z,2.20
2019-02-24T01:21:01.718Z,2.20
2019-02-24T01:23:49.630Z,2.20
2019-02-24T01:26:37.502Z,2.20
2019-02-24T01:29:25.406Z,2.20
2019-02-24T01:32:13.316Z,2.20
2019-02-24T01:35:01.192Z,2.20
2019-02-24T01:37:49.090Z,2.20
2019-02-24T01:40:36.978Z,2.20
2019-02-24T01:43:24.882Z,2.20
2019-02-24T01:46:12.830Z,2.10
2019-02-24T01:49:00.738Z,2.10
2019-02-24T01:54:37.415Z,2.00
2019-02-24T01:57:25.296Z,1.90
2019-02-24T02:00:13.263Z,1.90
2019-02-24T02:03:01.174Z,1.90
2019-02-24T02:05:49.046Z,1.90
2019-02-24T02:08:36.952Z,1.90
2019-02-24T02:11:24.833Z,1.90
2019-02-24T02:14:12.734Z,1.90
2019-02-24T02:17:00.621Z,1.80
2019-02-24T02:19:48.518Z,1.70
2019-02-24T02:22:36.406Z,1.70
2019-02-24T02:25:24.309Z,1.70
2019-02-24T02:28:05.470Z,1.60
2019-02-24T02:30:46.317Z,1.60
2019-02-24T02:33:27.344Z,1.60
2019-02-24T02:36:08.230Z,1.60
2019-02-24T02:38:48.918Z,1.60
2019-02-24T02:41:30.073Z,1.60
2019-02-24T02:44:14.168Z,1.60
2019-02-24T02:46:54.788Z,1.60
2019-02-24T02:49:35.398Z,1.60
2019-02-24T02:52:16.018Z,1.60
2019-02-24T02:54:56.583Z,1.60
2019-02-24T02:57:36.906Z,1.60
2019-02-24T03:00:17.482Z,1.50
2019-02-24T03:02:58.103Z,1.50
2019-02-24T03:05:40.540Z,1.50
2019-02-24T03:08:23.157Z,1.60
2019-02-24T03:11:04.241Z,1.60
2019-02-24T03:13:44.897Z,1.60
2019-02-24T03:16:27.010Z,1.70
2019-02-24T03:19:07.978Z,1.70
2019-02-24T03:21:48.332Z,1.70
2019-02-24T03:24:28.994Z,1.80
2019-02-24T03:27:09.806Z,1.80
2019-02-24T03:29:50.677Z,1.80
2019-02-24T03:32:31.433Z,1.70
2019-02-24T03:35:12.177Z,1.60
2019-02-24T03:37:52.910Z,1.60
2019-02-24T03:40:33.777Z,1.50
2019-02-24T03:43:14.295Z,1.50
2019-02-24T03:45:54.703Z,1.50
2019-02-24T03:48:35.397Z,1.40
2019-02-24T03:51:15.994Z,1.40
2019-02-24T03:53:56.526Z,1.40
2019-02-24T03:56:37.205Z,1.40
2019-02-24T03:59:17.924Z,1.40
2019-02-24T04:01:58.284Z,1.40
2019-02-24T04:04:39.172Z,1.40
2019-02-24T04:07:19.754Z,1.30
2019-02-24T04:10:00.214Z,1.30
2019-02-24T04:12:40.893Z,1.30
2019-02-24T04:15:21.794Z,1.30
2019-02-24T04:18:02.126Z,1.20
2019-02-24T04:20:42.822Z,1.20
2019-02-24T04:23:23.301Z,1.10
2019-02-24T04:26:04.295Z,1.10
2019-02-24T04:28:45.113Z,1.10
2019-02-24T04:31:25.478Z,1.10
2019-02-24T04:34:05.966Z,1.10
2019-02-24T04:36:46.690Z,1.00
2019-02-24T04:39:27.140Z,1.00
2019-02-24T04:42:07.883Z,1.00
2019-02-24T04:44:48.825Z,1.00
2019-02-24T04:47:29.526Z,0.90
2019-02-24T04:50:10.110Z,0.90
2019-02-24T04:52:50.980Z,0.90
2019-02-24T04:55:31.548Z,0.90
2019-02-24T04:58:12.718Z,0.90
2019-02-24T05:00:53.343Z,0.90
2019-02-24T05:03:34.408Z,0.90
2019-02-24T05:06:15.258Z,0.90
2019-02-24T05:08:55.991Z,1.00
2019-02-24T05:11:36.398Z,1.00
2019-02-24T05:14:17.625Z,1.00
2019-02-24T05:16:58.121Z,1.00
2019-02-24T05:19:38.817Z,1.00
2019-02-24T05:22:19.690Z,0.90
2019-02-24T05:25:00.366Z,0.90
2019-02-24T05:27:40.703Z,0.90
2019-02-24T05:30:21.545Z,0.80
2019-02-24T05:33:02.527Z,0.80
2019-02-24T05:35:43.042Z,0.80
2019-02-24T05:38:23.899Z,0.80
2019-02-24T05:41:04.359Z,0.80
2019-02-24T05:43:45.031Z,0.80
2019-02-24T05:46:25.883Z,0.80
2019-02-24T05:49:06.745Z,0.70
2019-02-24T05:51:47.152Z,0.70
2019-02-24T05:54:29.765Z,0.70
2019-02-24T05:57:10.543Z,0.70
2019-02-24T05:59:55.296Z,0.70
2019-02-24T06:02:33.682Z,0.70
2019-02-24T06:05:14.133Z,0.70
2019-02-24T06:07:55.009Z,0.70
2019-02-24T06:10:35.763Z,0.60
2019-02-24T06:13:04.330Z,0.60
2019-02-24T06:15:52.221Z,0.60
2019-02-24T06:18:40.127Z,0.60
2019-02-24T06:21:28.072Z,0.60
2019-02-24T06:24:15.914Z,0.60
2019-02-24T06:26:56.854Z,0.60
2019-02-24T06:29:37.802Z,0.50
2019-02-24T06:32:18.607Z,0.60
2019-02-24T06:34:59.698Z,0.60
2019-02-24T06:37:40.095Z,0.60
2019-02-24T06:40:20.568Z,0.50
2019-02-24T06:43:01.129Z,0.50
2019-02-24T06:45:42.045Z,0.50
2019-02-24T06:48:22.844Z,0.50
2019-02-24T06:51:05.432Z,0.50
2019-02-24T06:53:46.553Z,0.50
2019-02-24T06:56:27.097Z,0.50
2019-02-24T06:59:07.745Z,0.50
2019-02-24T07:01:48.160Z,0.50
2019-02-24T07:04:28.847Z,0.50
2019-02-24T07:07:09.529Z,0.50
2019-02-24T07:09:50.017Z,0.50
2019-02-24T07:12:30.697Z,0.60
2019-02-24T07:14:59.257Z,0.60
2019-02-24T07:17:47.057Z,0.70
2019-02-24T07:20:34.889Z,0.70
2019-02-24T07:23:22.789Z,0.80
2019-02-24T07:26:10.669Z,0.90
2019-02-24T07:28:51.617Z,0.90
2019-02-24T07:31:32.022Z,1.00
2019-02-24T07:34:13.014Z,1.00
2019-02-24T07:36:53.734Z,1.10
2019-02-24T07:39:34.534Z,1.10
2019-02-24T07:42:15.226Z,1.20
2019-02-24T07:44:55.618Z,1.30
2019-02-24T07:47:36.387Z,1.30
2019-02-24T07:50:17.145Z,1.40
2019-02-24T07:52:57.650Z,1.40
2019-02-24T07:55:38.370Z,1.40
2019-02-24T07:58:18.901Z,1.50
2019-02-24T08:00:59.534Z,1.50
2019-02-24T08:03:39.883Z,1.60
2019-02-24T08:06:20.546Z,1.70
2019-02-24T08:09:01.210Z,1.70
2019-02-24T08:11:41.630Z,1.80
2019-02-24T08:14:22.393Z,1.90
2019-02-24T08:17:02.922Z,2.00
2019-02-24T08:19:43.974Z,2.00
2019-02-24T08:22:24.560Z,2.10
2019-02-24T08:25:05.243Z,2.20
2019-02-24T08:27:46.194Z,2.30
2019-02-24T08:30:27.108Z,2.40
2019-02-24T08:33:08.031Z,2.50
2019-02-24T08:35:48.686Z,2.50
2019-02-24T08:38:29.349Z,2.60
2019-02-24T08:41:10.023Z,2.70
2019-02-24T08:43:50.857Z,2.80
2019-02-24T08:46:31.843Z,2.90
2019-02-24T08:49:12.787Z,3.10
2019-02-24T08:51:53.418Z,3.20
2019-02-24T08:54:33.931Z,3.30
2019-02-24T08:57:14.371Z,3.40
2019-02-24T08:59:54.997Z,3.50
2019-02-24T09:02:35.436Z,3.60
2019-02-24T09:05:15.982Z,3.80
2019-02-24T09:07:56.583Z,4.00
2019-02-24T09:10:37.382Z,4.10
2019-02-24T09:13:18.063Z,4.20
2019-02-24T09:15:58.649Z,4.30
2019-02-24T09:18:39.297Z,4.50
2019-02-24T09:21:20.050Z,4.70
2019-02-24T09:24:00.789Z,4.80
2019-02-24T09:26:41.550Z,4.90
2019-02-24T09:29:22.565Z,5.10
2019-02-24T09:32:03.653Z,5.20
2019-02-24T09:34:44.258Z,5.30
2019-02-24T09:37:24.837Z,5.50
2019-02-24T09:40:05.731Z,5.60
2019-02-24T09:42:46.524Z,5.80
2019-02-24T09:45:27.702Z,5.80
2019-02-24T09:48:08.463Z,5.90
2019-02-24T09:50:49.247Z,6.00
2019-02-24T09:53:30.127Z,6.10
2019-02-24T09:56:10.969Z,6.20
2019-02-24T09:58:51.795Z,6.30
2019-02-24T10:01:32.696Z,6.40
2019-02-24T10:04:13.693Z,6.50
2019-02-24T10:06:54.677Z,6.50
2019-02-24T10:09:35.292Z,6.60
2019-02-24T10:12:15.761Z,6.70
2019-02-24T10:14:56.714Z,6.70
2019-02-24T10:17:37.446Z,6.80
2019-02-24T10:20:18.266Z,6.90
2019-02-24T10:22:58.911Z,7.00
2019-02-24T10:25:39.479Z,7.10
2019-02-24T10:28:20.468Z,7.20
2019-02-24T10:31:01.667Z,7.30
2019-02-24T10:33:42.840Z,7.40
2019-02-24T10:36:23.657Z,7.50
2019-02-24T10:39:04.214Z,7.60
2019-02-24T10:41:44.615Z,7.70
2019-02-24T10:44:25.026Z,7.80
2019-02-24T10:47:05.726Z,7.90
2019-02-24T10:49:46.595Z,8.00
2019-02-24T10:52:27.247Z,8.20
2019-02-24T10:55:08.094Z,8.30
2019-02-24T10:57:48.786Z,8.40
2019-02-24T11:00:29.217Z,8.50
2019-02-24T11:03:09.668Z,8.70
2019-02-24T11:05:50.320Z,8.80
2019-02-24T11:08:31.422Z,8.90
2019-02-24T11:11:11.965Z,9.00
2019-02-24T11:13:52.369Z,9.10
2019-02-24T11:16:32.915Z,9.20
2019-02-24T11:19:13.503Z,9.20
2019-02-24T11:21:54.178Z,9.30
2019-02-24T11:24:34.831Z,9.30
2019-02-24T11:27:15.700Z,9.40
2019-02-24T11:29:56.618Z,9.50
2019-02-24T11:32:37.330Z,9.60
2019-02-24T11:35:17.735Z,9.60
2019-02-24T11:37:58.573Z,9.70
2019-02-24T11:40:39.144Z,9.70
2019-02-24T11:43:19.706Z,9.80
2019-02-24T11:46:00.326Z,9.90
2019-02-24T11:48:41.066Z,9.90
2019-02-24T11:51:22.054Z,10.00
2019-02-24T11:54:03.155Z,10.10
2019-02-24T12:00:02.956Z,10.20
2019-02-24T12:02:43.608Z,10.20
2019-02-24T12:05:24.370Z,10.30
2019-02-24T12:08:05.401Z,10.40
2019-02-24T12:10:46.169Z,10.40
2019-02-24T12:13:27.106Z,10.50
2019-02-24T12:16:08.050Z,10.50
2019-02-24T12:18:48.771Z,10.60
2019-02-24T12:21:29.233Z,10.60
2019-02-24T12:24:09.897Z,10.60
2019-02-24T12:26:50.604Z,10.70
2019-02-24T12:29:30.999Z,10.70
2019-02-24T12:32:11.817Z,10.80
2019-02-24T12:34:52.486Z,10.80
2019-02-24T12:37:33.006Z,10.80
2019-02-24T12:40:13.836Z,10.80
2019-02-24T12:42:54.653Z,10.90
2019-02-24T12:45:35.428Z,10.90
2019-02-24T12:48:15.966Z,10.90
2019-02-24T12:50:56.883Z,10.90
2019-02-24T12:53:37.625Z,10.90
2019-02-24T12:56:18.429Z,10.90
2019-02-24T12:58:46.999Z,11.00
2019-02-24T13:01:34.890Z,11.00
2019-02-24T13:04:22.790Z,11.10
2019-02-24T13:07:10.670Z,11.10
2019-02-24T13:09:58.570Z,11.10
2019-02-24T13:12:46.445Z,11.20
2019-02-24T13:15:34.362Z,11.20
2019-02-24T13:18:22.246Z,11.30
2019-02-24T13:21:10.149Z,11.30
2019-02-24T13:23:58.212Z,11.40
2019-02-24T13:29:26.230Z,11.40
2019-02-24T13:35:26.434Z,11.50
2019-02-24T13:38:07.191Z,11.50
2019-02-24T13:40:48.177Z,11.50
2019-02-24T13:43:29.166Z,11.60
2019-02-24T13:45:58.246Z,11.60
2019-02-24T13:48:46.608Z,11.70
2019-02-24T13:54:43.951Z,11.80
2019-02-24T13:57:31.889Z,11.90
2019-02-24T14:00:20.371Z,12.00
2019-02-24T14:03:08.408Z,12.10
2019-02-24T14:05:56.317Z,12.10
2019-02-24T14:08:44.196Z,12.20
2019-02-24T14:11:32.106Z,12.30
2019-02-24T14:14:20.039Z,12.30
2019-02-24T14:17:07.889Z,12.40
2019-02-24T14:19:55.883Z,12.50
2019-02-24T14:22:43.689Z,12.50
2019-02-24T14:25:31.804Z,12.60
2019-02-24T14:28:12.879Z,12.70
2019-02-24T14:30:53.534Z,12.70
2019-02-24T14:33:34.958Z,12.80
2019-02-24T14:36:16.009Z,12.90
2019-02-24T14:38:56.839Z,13.10
2019-02-24T14:41:37.569Z,13.20
2019-02-24T14:44:18.450Z,13.30
2019-02-24T14:46:59.379Z,13.40
2019-02-24T14:49:40.665Z,13.50
2019-02-24T14:52:21.175Z,13.50
2019-02-24T14:55:02.251Z,13.50
2019-02-24T14:57:42.954Z,13.60
2019-02-24T15:03:32.358Z,13.70
2019-02-24T15:06:13.137Z,13.80
2019-02-24T15:08:53.942Z,13.80
2019-02-24T15:11:34.760Z,13.90
2019-02-24T15:14:15.251Z,13.90
2019-02-24T15:16:55.750Z,13.90
2019-02-24T15:19:36.126Z,13.90
2019-02-24T15:22:16.672Z,13.90
2019-02-24T15:24:57.347Z,13.90
2019-02-24T15:27:37.999Z,13.90
2019-02-24T15:30:18.487Z,13.80
2019-02-24T15:32:59.457Z,13.80
2019-02-24T15:35:40.106Z,13.70
2019-02-24T15:38:21.066Z,13.70
2019-02-24T15:41:01.905Z,13.60
2019-02-24T15:43:42.644Z,13.60
2019-02-24T15:46:23.469Z,13.70
2019-02-24T15:49:04.044Z,13.80
2019-02-24T15:51:45.014Z,14.30
2019-02-24T15:54:25.992Z,14.90
2019-02-24T15:57:10.066Z,15.10
2019-02-24T15:59:51.079Z,15.00
2019-02-24T16:02:31.455Z,14.80
2019-02-24T16:05:12.268Z,14.50
2019-02-24T16:07:53.067Z,14.20
2019-02-24T16:10:33.863Z,14.00
2019-02-24T16:13:17.208Z,13.70
2019-02-24T16:15:57.522Z,13.50
2019-02-24T16:18:38.326Z,13.20
2019-02-24T16:21:18.754Z,13.10
2019-02-24T16:23:59.798Z,12.90
2019-02-24T16:26:40.428Z,12.80
2019-02-24T16:29:21.082Z,12.70
2019-02-24T16:32:02.082Z,12.60
2019-02-24T16:34:42.982Z,12.50
2019-02-24T16:37:23.847Z,12.40
2019-02-24T16:40:04.434Z,12.20
2019-02-24T16:42:45.070Z,12.10
2019-02-24T16:45:25.822Z,12.00
2019-02-24T16:48:06.826Z,11.90
2019-02-24T16:50:47.270Z,11.80
2019-02-24T16:53:28.335Z,11.70
2019-02-24T16:56:09.210Z,11.60
2019-02-24T16:58:49.737Z,11.60
2019-02-24T17:01:18.290Z,11.40
2019-02-24T17:04:06.227Z,11.40
2019-02-24T17:06:54.113Z,11.30
2019-02-24T17:09:42.021Z,11.20
2019-02-24T17:12:29.931Z,11.10
2019-02-24T17:15:17.813Z,11.00
2019-02-24T17:17:46.452Z,10.80
2019-02-24T17:20:34.330Z,10.70
2019-02-24T17:23:22.254Z,10.60
2019-02-24T17:26:10.138Z,10.50
2019-02-24T17:28:51.155Z,10.40
2019-02-24T17:31:31.813Z,10.30
2019-02-24T17:34:12.683Z,10.20
2019-02-24T17:36:53.502Z,10.10
2019-02-24T17:39:34.566Z,9.90
2019-02-24T17:42:15.394Z,9.80
2019-02-24T17:44:56.492Z,9.70
2019-02-24T17:50:45.505Z,9.40
2019-02-24T17:53:26.004Z,9.40
2019-02-24T17:56:06.874Z,9.30
2019-02-24T17:58:47.616Z,9.30
2019-02-24T18:01:28.518Z,9.20
2019-02-24T18:04:09.017Z,9.10
2019-02-24T18:06:49.575Z,9.00
2019-02-24T18:09:30.142Z,8.90
2019-02-24T18:12:10.711Z,8.80
2019-02-24T18:14:51.330Z,8.80
2019-02-24T18:17:31.862Z,8.80
2019-02-24T18:20:12.314Z,8.70
2019-02-24T18:22:53.163Z,8.60
2019-02-24T18:25:33.534Z,8.50
2019-02-24T18:28:02.160Z,8.50
2019-02-24T18:30:50.102Z,8.40
2019-02-24T18:33:37.933Z,8.30
2019-02-24T18:36:25.878Z,8.20
2019-02-24T18:38:54.450Z,8.10
2019-02-24T18:41:42.327Z,8.00
2019-02-24T18:44:30.233Z,7.90
2019-02-24T18:47:18.161Z,7.80
2019-02-24T18:50:26.786Z,7.70
2019-02-24T18:53:14.130Z,7.60
2019-02-24T18:56:02.014Z,7.60
2019-02-24T18:58:49.914Z,7.50
2019-02-24T19:01:37.791Z,7.40
2019-02-24T19:04:25.694Z,7.30
2019-02-24T19:07:13.638Z,7.20
2019-02-24T19:10:01.546Z,7.10
2019-02-24T19:12:49.421Z,7.00
2019-02-24T19:15:37.313Z,7.00
2019-02-24T19:18:25.198Z,7.00
2019-02-24T19:21:13.104Z,7.00
2019-02-24T19:24:01.007Z,7.00
2019-02-24T19:26:48.877Z,7.00
2019-02-24T19:29:29.657Z,7.00
2019-02-24T19:32:10.250Z,6.90
2019-02-24T19:34:50.727Z,6.90
2019-02-24T19:37:31.549Z,6.90
2019-02-24T19:40:12.265Z,6.80
2019-02-24T19:42:53.203Z,6.70
2019-02-24T19:45:34.157Z,6.60
2019-02-24T19:48:15.008Z,6.60
2019-02-24T19:50:55.546Z,6.50
2019-02-24T19:53:36.094Z,6.50
2019-02-24T19:56:16.798Z,6.40
2019-02-24T19:58:57.274Z,6.40
2019-02-24T20:01:37.762Z,6.40
2019-02-24T20:04:18.712Z,6.30
2019-02-24T20:06:59.298Z,6.20
2019-02-24T20:09:40.286Z,6.20
2019-02-24T20:12:21.074Z,6.10
2019-02-24T20:15:01.984Z,6.10
2019-02-24T20:17:42.471Z,6.00
2019-02-24T20:20:23.290Z,5.90
2019-02-24T20:23:04.146Z,5.90
2019-02-24T20:25:44.758Z,5.80
2019-02-24T20:28:25.417Z,5.70
2019-02-24T20:31:06.247Z,5.60
2019-02-24T20:33:46.717Z,5.60
2019-02-24T20:36:27.254Z,5.50
2019-02-24T20:39:07.844Z,5.60
2019-02-24T20:41:48.514Z,5.60
2019-02-24T20:44:29.487Z,5.50
2019-02-24T20:47:10.362Z,5.50
2019-02-24T20:49:50.682Z,5.50
2019-02-24T20:52:31.214Z,5.50
2019-02-24T20:55:11.888Z,5.40
2019-02-24T20:57:52.387Z,5.40
2019-02-24T21:00:33.375Z,5.40
2019-02-24T21:03:13.945Z,5.40
2019-02-24T21:05:54.527Z,5.40
2019-02-24T21:08:35.271Z,5.30
2019-02-24T21:11:16.062Z,5.30
2019-02-24T21:13:57.135Z,5.30
2019-02-24T21:16:38.010Z,5.30
2019-02-24T21:19:18.515Z,5.20
2019-02-24T21:21:59.335Z,5.20
2019-02-24T21:24:40.098Z,5.20
2019-02-24T21:27:20.562Z,5.20
2019-02-24T21:30:01.439Z,5.10
2019-02-24T21:32:42.213Z,5.10
2019-02-24T21:35:22.624Z,5.10
2019-02-24T21:38:03.090Z,5.10
2019-02-24T21:40:43.815Z,5.10
2019-02-24T21:43:24.498Z,5.00
2019-02-24T21:46:05.047Z,5.00
2019-02-24T21:48:46.034Z,4.90
2019-02-24T21:51:26.558Z,4.90
2019-02-24T21:54:07.261Z,4.80
2019-02-24T21:56:47.853Z,4.80
2019-02-24T21:59:36.821Z,4.70
2019-02-24T22:02:11.542Z,4.60
2019-02-24T22:04:52.219Z,4.60
2019-02-24T22:07:33.102Z,4.50
2019-02-24T22:10:13.391Z,4.50
2019-02-24T22:12:54.469Z,4.50
2019-02-24T22:15:35.158Z,4.40
2019-02-24T22:18:16.062Z,4.40
2019-02-24T22:20:56.514Z,4.20
2019-02-24T22:23:37.178Z,4.10
2019-02-24T22:26:17.538Z,4.10
2019-02-24T22:28:58.242Z,4.10
2019-02-24T22:31:38.970Z,4.10
2019-02-24T22:34:19.586Z,4.10
2019-02-24T22:37:00.630Z,4.10
2019-02-24T22:43:00.590Z,4.00
2019-02-24T22:45:40.958Z,4.00
2019-02-24T22:48:25.028Z,4.00
2019-02-24T22:51:05.778Z,4.00
2019-02-24T22:53:46.825Z,3.90
2019-02-24T22:56:27.682Z,3.90
2019-02-24T22:59:08.362Z,3.90
2019-02-24T23:01:49.205Z,3.80
2019-02-24T23:04:30.287Z,3.80
2019-02-24T23:07:10.967Z,3.80
2019-02-24T23:09:51.320Z,3.70
2019-02-24T23:12:32.018Z,3.60
2019-02-24T23:15:12.938Z,3.60
2019-02-24T23:17:53.586Z,3.50
2019-02-24T23:20:34.112Z,3.40
2019-02-24T23:23:14.890Z,3.40
2019-02-24T23:29:14.817Z,3.40
2019-02-24T23:31:55.509Z,3.40
2019-02-24T23:34:36.329Z,3.40
2019-02-24T23:37:17.144Z,3.40
2019-02-24T23:39:58.090Z,3.40
2019-02-24T23:42:38.970Z,3.40
2019-02-24T23:48:39.214Z,3.30
2019-02-24T23:51:19.988Z,3.30
2019-02-24T23:54:00.583Z,3.30
2019-02-24T23:56:41.151Z,3.30
2019-02-24T23:59:21.773Z,3.30
